Arcadia, Oklahoma
Current Conditions -  °F | °C
As of 12:53 PM on Friday 31 Oct 2014 (Local Time) from KGOK Reporting Station
Clear Clear  
Wind Chill: 54°   Ceiling: Unl
Heat Index: 54°   Visibility: 10mi
Dew Point: 34°   Wind: 13mph
Humidity: 47%   Direction: 20°NNE
Pressure: 30.44"   Gusts: 20mph
Location:  35.67°N, 97.33°W
Report Text: KGOK 311753Z AUTO 02011G17KT 10SM CLR 12/01 A3044 RMK AO2 SLP309 T01220011 10128 20067 50001
Loading
Personal Weather Stations






























Interactive Weather Map New forecast layout! Learn more

10-Day Weather Forecast

Advertisements
Track Severe Weather on mobile